This is the latest recevied weather packets stored in our database for station/object N5SRF. If no packets are shown the sender has not sent any weather packets the latest 1 day(s).
| Time | Temp. | Humidity | Pressure | Rain* | Wind** | Luminosity | Snow |
|---|---|---|---|---|---|---|---|
| 1777983769 | 21.67° C | 96% | 1012.5 hPa | 0 mm | 0.45 m/s, 177° | 48 W/m² | - |
| 1777983465 | 21.67° C | 96% | 1012.8 hPa | 0 mm | 1.34 m/s, 203° | 41 W/m² | - |
| 1777983162 | 21.11° C | 97% | 1012.7 hPa | 0 mm | 0 m/s | 44 W/m² | - |
| 1777982859 | 21.11° C | 97% | 1012.7 hPa | 0 mm | 0.89 m/s, 124° | 28 W/m² | - |
| 1777982555 | 21.11° C | 97% | 1012.7 hPa | 0 mm | 1.79 m/s, 184° | 12 W/m² | - |
| 1777982254 | 21.11° C | 97% | 1012.5 hPa | 0 mm | 0.45 m/s, 176° | 9 W/m² | - |
| 1777981951 | 21.11° C | 97% | 1012.7 hPa | 0 mm | 0.45 m/s, 163° | 5 W/m² | - |
| 1777981649 | 21.11° C | 97% | 1012.5 hPa | 0 mm | 0 m/s | 5 W/m² | - |
| 1777981344 | 21.11° C | 97% | 1012.7 hPa | 0 mm | 0.89 m/s, 348° | 4 W/m² | - |
| 1777981041 | 21.11° C | 97% | 1012.5 hPa | 0 mm | 1.34 m/s, 178° | 1 W/m² | - |
| 1777980737 | 21.11° C | 97% | 1012.5 hPa | 0 mm | 0.89 m/s, 191° | 0 W/m² | - |
| 1777980433 | 20.56° C | 97% | 1012.4 hPa | 0 mm | 2.24 m/s, 166° | 0 W/m² | - |
| 1777980131 | 20.56° C | 97% | 1012.2 hPa | 0 mm | 1.34 m/s, 176° | 0 W/m² | - |
| 1777979826 | 20.56° C | 97% | 1012.1 hPa | 0 mm | 0.89 m/s, 170° | 0 W/m² | - |
| 1777979522 | 20.56° C | 97% | 1012.4 hPa | 0 mm | 1.34 m/s, 160° | 0 W/m² | - |
| 1777979218 | 20.56° C | 97% | 1012.2 hPa | 0 mm | 0.45 m/s, 186° | 0 W/m² | - |
| 1777978916 | 20.56° C | 97% | 1012.4 hPa | 0 mm | 1.79 m/s, 144° | 0 W/m² | - |
| 1777978612 | 20.56° C | 97% | 1012.3 hPa | 0 mm | 0.45 m/s, 184° | 0 W/m² | - |
| 1777978308 | 20.56° C | 97% | 1012.5 hPa | 0 mm | 0.89 m/s, 186° | 0 W/m² | - |
| 1777978005 | 20.56° C | 97% | 1012.4 hPa | 0 mm | 0 m/s | 0 W/m² | - |
| 1777977703 | 20.56° C | 97% | 1012.2 hPa | 0 mm | 0 m/s | 0 W/m² | - |
| 1777977398 | 20.56° C | 97% | 1012.4 hPa | 0 mm | 0.45 m/s, 175° | 0 W/m² | - |
| 1777977096 | 20.56° C | 97% | 1012.3 hPa | 0 mm | 0.45 m/s, 178° | 0 W/m² | - |
| 1777976794 | 20° C | 97% | 1012.4 hPa | 0 mm | 0.45 m/s, 167° | 0 W/m² | - |
| 1777976491 | 20° C | 97% | 1012.4 hPa | 0 mm | 0.45 m/s, 160° | 0 W/m² | - |
* Rain latest hour (hover to see other rain measurements)
** Current wind speed in m/s (hover to see current wind gust speed)